HST,Max TemperatureF,Mean TemperatureF,Min TemperatureF,Max Dew PointF,MeanDew PointF,Min DewpointF,Max Humidity, Mean Humidity, Min Humidity, Max Sea Level PressureIn, Mean Sea Level PressureIn, Min Sea Level PressureIn, Max VisibilityMiles, Mean VisibilityMiles, Min VisibilityMiles, Max Wind SpeedMPH, Mean Wind SpeedMPH, Max Gust SpeedMPH,PrecipitationIn, CloudCover, Events, WindDirDegrees
2012-10-1,82,72,63,66,63,61,93,73,51,29.97,29.93,29.87,10,10,8,9,1,,0.00,4,,147
2012-10-2,83,74,66,68,65,62,87,75,51,29.98,29.94,29.88,10,10,10,8,2,,0.00,5,,178
2012-10-3,82,74,65,68,66,62,91,74,54,30.02,29.97,29.92,10,10,10,10,3,,0.00,5,Rain,109
2012-10-4,82,73,64,66,65,62,92,72,51,30.01,29.97,29.94,10,10,10,10,3,,0.00,4,,135
2012-10-5,81,72,63,67,65,61,92,75,54,29.98,29.92,29.88,10,10,10,8,3,,0.00,4,,321
2012-10-6,81,72,62,70,67,61,94,77,61,29.91,29.88,29.82,10,10,10,12,5,22,0.00,5,,154
2012-10-7,86,77,68,72,68,63,94,79,50,29.88,29.86,29.80,10,9,5,13,4,17,0.01,5,Rain,165
2012-10-8,82,76,71,70,69,68,94,84,62,29.96,29.91,29.85,10,9,6,12,5,21,0.02,4,Rain,163
2012-10-9,85,77,69,72,69,66,94,85,54,30.05,29.98,29.93,10,7,3,9,1,,0.00,5,,134
2012-10-10,85,76,66,70,68,64,92,79,55,30.08,30.05,29.97,10,10,7,14,4,20,0.00,5,Rain,34
2012-10-11,83,76,70,70,68,64,94,81,57,30.09,30.05,29.96,10,10,5,13,3,20,0.01,6,Rain,24
2012-10-12,82,76,71,66,65,63,78,69,52,30.12,30.08,30.00,10,10,10,16,6,17,0.00,4,,80
2012-10-13,81,74,68,68,67,63,86,73,59,30.13,30.10,30.06,10,10,7,15,6,21,0.01,4,Rain,57
2012-10-14,79,74,69,70,68,66,94,84,65,30.13,30.09,30.04,10,8,2,17,4,21,0.14,5,Rain,52
2012-10-15,81,75,69,68,66,63,94,81,54,30.09,30.04,29.96,10,9,2,18,3,26,0.03,6,Rain,88
2012-10-16,80,74,68,70,66,64,94,84,61,30.01,29.98,29.92,10,9,2,15,3,,0.04,4,Rain,329
2012-10-17,81,73,65,66,64,62,88,75,58,29.97,29.93,29.87,10,10,10,13,4,,0.00,1,,26
2012-10-18,82,73,64,66,64,62,90,74,55,30.01,29.96,29.89,10,10,9,16,4,22,0.00,3,,80
2012-10-19,80,72,64,67,62,60,90,70,51,30.01,29.97,29.92,10,10,10,20,7,25,0.00,1,,64
2012-10-20,81,75,69,68,66,62,88,77,53,29.98,29.95,29.90,10,10,6,15,4,21,0.00,5,Rain,77
2012-10-21,79,73,67,65,63,62,87,71,55,29.97,29.95,29.91,10,10,10,17,4,22,0.00,3,,101
2012-10-22,81,74,68,65,63,60,84,72,52,29.99,29.94,29.88,10,10,10,14,4,20,0.00,4,,111
2012-10-23,80,72,64,67,65,61,89,73,58,29.96,29.90,29.86,10,10,10,10,5,,0.00,6,,345
2012-10-24,82,74,67,72,68,64,94,79,62,29.91,29.87,29.82,10,10,9,7,3,,0.00,4,Rain,339
2012-10-25,82,76,69,72,71,67,95,86,66,29.98,29.92,29.86,10,9,1,13,3,,0.47,6,Rain,163
2012-10-26,80,74,68,72,69,66,100,92,70,30.04,29.96,29.93,10,6,1,9,2,,0.00,5,,308
2012-10-27,83,77,71,67,66,64,81,72,54,30.07,30.02,29.95,10,10,10,14,6,,0.00,6,,30
2012-10-28,80,74,69,68,67,63,94,84,55,30.03,29.99,29.95,10,10,4,16,5,22,0.02,7,Rain,342
2012-10-29,80,74,67,68,65,61,94,79,51,30.06,30.02,29.96,10,10,7,15,3,21,0.02,6,Rain,30
2012-10-30,78,72,66,66,65,63,91,77,61,30.08,30.04,29.98,10,10,7,13,3,,0.00,6,,47
2012-10-31,81,72,64,67,63,61,94,78,50,30.05,30.01,29.96,10,10,9,15,4,20,0.00,5,,326